sensor_id;sensor_type;location;lat;lon;timestamp;temperature;humidity
74153;DHT22;62505;46.070;14.492;2023-11-21T00:01:42;22.20;73.40
74153;DHT22;62505;46.070;14.492;2023-11-21T00:04:09;22.20;73.50
74153;DHT22;62505;46.070;14.492;2023-11-21T00:06:37;22.20;73.50
74153;DHT22;62505;46.070;14.492;2023-11-21T00:09:05;22.20;73.50
74153;DHT22;62505;46.070;14.492;2023-11-21T00:11:34;22.20;73.50
74153;DHT22;62505;46.070;14.492;2023-11-21T00:14:01;22.20;73.50
74153;DHT22;62505;46.070;14.492;2023-11-21T00:16:28;22.20;74.30
74153;DHT22;62505;46.070;14.492;2023-11-21T00:18:55;22.20;73.50
74153;DHT22;62505;46.070;14.492;2023-11-21T00:21:22;22.20;73.50
74153;DHT22;62505;46.070;14.492;2023-11-21T00:23:49;22.20;73.50
74153;DHT22;62505;46.070;14.492;2023-11-21T00:26:18;22.20;73.50
74153;DHT22;62505;46.070;14.492;2023-11-21T00:28:45;22.20;73.50
74153;DHT22;62505;46.070;14.492;2023-11-21T00:31:12;22.20;73.50
74153;DHT22;62505;46.070;14.492;2023-11-21T00:33:39;22.20;73.50
74153;DHT22;62505;46.070;14.492;2023-11-21T00:36:07;22.20;73.60
74153;DHT22;62505;46.070;14.492;2023-11-21T00:38:35;22.20;73.70
74153;DHT22;62505;46.070;14.492;2023-11-21T00:41:02;22.20;73.70
74153;DHT22;62505;46.070;14.492;2023-11-21T00:43:30;22.20;73.70
74153;DHT22;62505;46.070;14.492;2023-11-21T00:45:58;22.20;73.70
74153;DHT22;62505;46.070;14.492;2023-11-21T00:48:25;22.20;73.70
74153;DHT22;62505;46.070;14.492;2023-11-21T00:50:53;22.20;73.80
74153;DHT22;62505;46.070;14.492;2023-11-21T00:53:21;22.20;73.70
74153;DHT22;62505;46.070;14.492;2023-11-21T00:55:48;22.20;73.70
74153;DHT22;62505;46.070;14.492;2023-11-21T00:58:16;22.20;73.70
74153;DHT22;62505;46.070;14.492;2023-11-21T01:00:44;22.20;73.70
74153;DHT22;62505;46.070;14.492;2023-11-21T01:03:14;22.20;73.70
74153;DHT22;62505;46.070;14.492;2023-11-21T01:05:41;22.20;73.70
74153;DHT22;62505;46.070;14.492;2023-11-21T01:08:07;22.20;73.70
74153;DHT22;62505;46.070;14.492;2023-11-21T01:10:35;22.20;73.80
74153;DHT22;62505;46.070;14.492;2023-11-21T01:13:03;22.20;73.80
74153;DHT22;62505;46.070;14.492;2023-11-21T01:15:31;22.20;73.70
74153;DHT22;62505;46.070;14.492;2023-11-21T01:18:00;22.20;73.80
74153;DHT22;62505;46.070;14.492;2023-11-21T01:20:26;22.20;73.80
74153;DHT22;62505;46.070;14.492;2023-11-21T01:22:53;22.20;73.80
74153;DHT22;62505;46.070;14.492;2023-11-21T01:25:21;22.20;73.80
74153;DHT22;62505;46.070;14.492;2023-11-21T01:27:48;22.20;73.80
74153;DHT22;62505;46.070;14.492;2023-11-21T01:30:15;22.20;73.80
74153;DHT22;62505;46.070;14.492;2023-11-21T01:32:42;22.20;73.80
74153;DHT22;62505;46.070;14.492;2023-11-21T01:35:10;22.20;74.60
74153;DHT22;62505;46.070;14.492;2023-11-21T01:37:38;22.20;73.70
74153;DHT22;62505;46.070;14.492;2023-11-21T01:40:06;22.20;73.80
74153;DHT22;62505;46.070;14.492;2023-11-21T01:42:36;22.20;73.80
74153;DHT22;62505;46.070;14.492;2023-11-21T01:45:04;22.20;73.80
74153;DHT22;62505;46.070;14.492;2023-11-21T01:47:32;22.20;73.70
74153;DHT22;62505;46.070;14.492;2023-11-21T01:50:01;22.20;73.80
74153;DHT22;62505;46.070;14.492;2023-11-21T01:52:31;22.20;73.80
74153;DHT22;62505;46.070;14.492;2023-11-21T01:54:59;22.20;73.80
74153;DHT22;62505;46.070;14.492;2023-11-21T01:57:27;22.20;73.70
74153;DHT22;62505;46.070;14.492;2023-11-21T01:59:55;22.20;74.60
74153;DHT22;62505;46.070;14.492;2023-11-21T02:02:22;22.20;73.80
74153;DHT22;62505;46.070;14.492;2023-11-21T02:04:49;22.20;73.80
74153;DHT22;62505;46.070;14.492;2023-11-21T02:07:17;22.20;73.90
74153;DHT22;62505;46.070;14.492;2023-11-21T02:09:46;22.20;73.80
74153;DHT22;62505;46.070;14.492;2023-11-21T02:12:13;22.20;73.80
74153;DHT22;62505;46.070;14.492;2023-11-21T02:14:41;22.20;73.90
74153;DHT22;62505;46.070;14.492;2023-11-21T02:17:08;22.20;73.80
74153;DHT22;62505;46.070;14.492;2023-11-21T02:19:35;22.20;73.90
74153;DHT22;62505;46.070;14.492;2023-11-21T02:22:02;22.20;73.90
74153;DHT22;62505;46.070;14.492;2023-11-21T02:24:33;22.20;73.90
74153;DHT22;62505;46.070;14.492;2023-11-21T02:27:00;22.20;73.80
74153;DHT22;62505;46.070;14.492;2023-11-21T02:29:27;22.20;73.90
74153;DHT22;62505;46.070;14.492;2023-11-21T02:31:55;22.20;73.80
74153;DHT22;62505;46.070;14.492;2023-11-21T02:34:22;22.20;73.80
74153;DHT22;62505;46.070;14.492;2023-11-21T02:36:50;22.20;73.80
74153;DHT22;62505;46.070;14.492;2023-11-21T02:39:18;22.20;73.80
74153;DHT22;62505;46.070;14.492;2023-11-21T02:41:49;22.20;74.50
74153;DHT22;62505;46.070;14.492;2023-11-21T02:44:16;22.20;73.80
74153;DHT22;62505;46.070;14.492;2023-11-21T02:46:43;22.20;73.70
74153;DHT22;62505;46.070;14.492;2023-11-21T02:49:10;22.20;73.80
74153;DHT22;62505;46.070;14.492;2023-11-21T02:51:37;22.20;73.80
74153;DHT22;62505;46.070;14.492;2023-11-21T02:54:05;22.20;73.80
74153;DHT22;62505;46.070;14.492;2023-11-21T02:56:33;22.20;73.80
74153;DHT22;62505;46.070;14.492;2023-11-21T02:59:02;22.20;73.80
74153;DHT22;62505;46.070;14.492;2023-11-21T03:01:29;22.20;73.70
74153;DHT22;62505;46.070;14.492;2023-11-21T03:03:56;22.20;73.80
74153;DHT22;62505;46.070;14.492;2023-11-21T03:06:23;22.20;73.70
74153;DHT22;62505;46.070;14.492;2023-11-21T03:08:50;22.20;73.70
74153;DHT22;62505;46.070;14.492;2023-11-21T03:11:17;22.20;73.80
74153;DHT22;62505;46.070;14.492;2023-11-21T03:13:44;22.20;73.70
74153;DHT22;62505;46.070;14.492;2023-11-21T03:16:13;22.20;73.70
74153;DHT22;62505;46.070;14.492;2023-11-21T03:18:40;22.20;73.70
74153;DHT22;62505;46.070;14.492;2023-11-21T03:21:07;22.20;73.80
74153;DHT22;62505;46.070;14.492;2023-11-21T03:23:35;22.20;73.80
74153;DHT22;62505;46.070;14.492;2023-11-21T03:26:02;22.20;73.80
74153;DHT22;62505;46.070;14.492;2023-11-21T03:28:29;22.10;73.70
74153;DHT22;62505;46.070;14.492;2023-11-21T03:30:57;22.20;73.70
74153;DHT22;62505;46.070;14.492;2023-11-21T03:33:25;22.20;73.70
74153;DHT22;62505;46.070;14.492;2023-11-21T03:35:52;22.20;73.70
74153;DHT22;62505;46.070;14.492;2023-11-21T03:38:19;22.20;73.70
74153;DHT22;62505;46.070;14.492;2023-11-21T03:40:46;22.20;73.70
74153;DHT22;62505;46.070;14.492;2023-11-21T03:43:13;22.20;73.60
74153;DHT22;62505;46.070;14.492;2023-11-21T03:45:40;22.20;73.60
74153;DHT22;62505;46.070;14.492;2023-11-21T03:48:08;22.20;73.60
74153;DHT22;62505;46.070;14.492;2023-11-21T03:50:36;22.20;73.60
74153;DHT22;62505;46.070;14.492;2023-11-21T03:53:03;22.20;73.60
74153;DHT22;62505;46.070;14.492;2023-11-21T03:55:30;22.20;73.70
74153;DHT22;62505;46.070;14.492;2023-11-21T03:57:57;22.20;74.40
74153;DHT22;62505;46.070;14.492;2023-11-21T04:00:25;22.20;73.50
74153;DHT22;62505;46.070;14.492;2023-11-21T04:02:52;22.20;73.60
74153;DHT22;62505;46.070;14.492;2023-11-21T04:05:20;22.20;73.60
74153;DHT22;62505;46.070;14.492;2023-11-21T04:07:50;22.10;73.40
74153;DHT22;62505;46.070;14.492;2023-11-21T04:10:17;22.20;73.60
74153;DHT22;62505;46.070;14.492;2023-11-21T04:12:44;22.20;73.60
74153;DHT22;62505;46.070;14.492;2023-11-21T04:15:12;22.20;73.50
74153;DHT22;62505;46.070;14.492;2023-11-21T04:17:40;22.20;73.50
74153;DHT22;62505;46.070;14.492;2023-11-21T04:20:08;22.20;73.60
74153;DHT22;62505;46.070;14.492;2023-11-21T04:22:37;22.20;73.60
74153;DHT22;62505;46.070;14.492;2023-11-21T04:25:08;22.20;73.50
74153;DHT22;62505;46.070;14.492;2023-11-21T04:27:36;22.20;73.60
74153;DHT22;62505;46.070;14.492;2023-11-21T04:30:04;22.20;73.50
74153;DHT22;62505;46.070;14.492;2023-11-21T04:32:32;22.20;73.60
74153;DHT22;62505;46.070;14.492;2023-11-21T04:34:59;22.20;73.60
74153;DHT22;62505;46.070;14.492;2023-11-21T04:37:26;22.20;73.60
74153;DHT22;62505;46.070;14.492;2023-11-21T04:39:53;22.20;74.40
74153;DHT22;62505;46.070;14.492;2023-11-21T04:42:21;22.20;73.50
74153;DHT22;62505;46.070;14.492;2023-11-21T04:44:48;22.20;73.50
74153;DHT22;62505;46.070;14.492;2023-11-21T04:47:15;22.20;73.60
74153;DHT22;62505;46.070;14.492;2023-11-21T04:49:46;22.20;73.50
74153;DHT22;62505;46.070;14.492;2023-11-21T04:52:13;22.20;73.50
74153;DHT22;62505;46.070;14.492;2023-11-21T04:54:40;22.20;73.50
74153;DHT22;62505;46.070;14.492;2023-11-21T04:57:08;22.20;73.50
74153;DHT22;62505;46.070;14.492;2023-11-21T04:59:37;22.20;73.60
74153;DHT22;62505;46.070;14.492;2023-11-21T05:02:04;22.20;73.60
74153;DHT22;62505;46.070;14.492;2023-11-21T05:04:31;22.20;73.60
74153;DHT22;62505;46.070;14.492;2023-11-21T05:06:58;22.20;73.60
74153;DHT22;62505;46.070;14.492;2023-11-21T05:09:26;22.20;73.50
74153;DHT22;62505;46.070;14.492;2023-11-21T05:11:54;22.20;73.50
74153;DHT22;62505;46.070;14.492;2023-11-21T05:14:21;22.20;73.70
74153;DHT22;62505;46.070;14.492;2023-11-21T05:16:49;22.20;73.90
74153;DHT22;62505;46.070;14.492;2023-11-21T05:19:17;22.20;74.40
74153;DHT22;62505;46.070;14.492;2023-11-21T05:21:44;22.20;74.10
74153;DHT22;62505;46.070;14.492;2023-11-21T05:24:13;22.20;74.40
74153;DHT22;62505;46.070;14.492;2023-11-21T05:26:39;22.20;74.40
74153;DHT22;62505;46.070;14.492;2023-11-21T05:29:06;22.20;74.90
74153;DHT22;62505;46.070;14.492;2023-11-21T05:31:34;22.20;74.80
74153;DHT22;62505;46.070;14.492;2023-11-21T05:34:03;22.20;74.80
74153;DHT22;62505;46.070;14.492;2023-11-21T05:36:31;22.20;74.60
74153;DHT22;62505;46.070;14.492;2023-11-21T05:38:58;22.20;74.50
74153;DHT22;62505;46.070;14.492;2023-11-21T05:41:25;22.20;74.20
74153;DHT22;62505;46.070;14.492;2023-11-21T05:43:52;22.20;74.50
74153;DHT22;62505;46.070;14.492;2023-11-21T05:46:19;22.20;74.90
74153;DHT22;62505;46.070;14.492;2023-11-21T05:48:47;22.20;74.50
74153;DHT22;62505;46.070;14.492;2023-11-21T05:51:15;22.20;74.80
74153;DHT22;62505;46.070;14.492;2023-11-21T05:53:43;22.20;74.50
74153;DHT22;62505;46.070;14.492;2023-11-21T05:56:10;22.30;74.50
74153;DHT22;62505;46.070;14.492;2023-11-21T05:58:37;22.20;75.20
74153;DHT22;62505;46.070;14.492;2023-11-21T06:01:05;22.20;74.80
74153;DHT22;62505;46.070;14.492;2023-11-21T06:03:33;22.30;75.00
74153;DHT22;62505;46.070;14.492;2023-11-21T06:06:00;22.30;74.80
74153;DHT22;62505;46.070;14.492;2023-11-21T06:08:28;22.30;75.00
74153;DHT22;62505;46.070;14.492;2023-11-21T06:10:55;22.30;75.40
74153;DHT22;62505;46.070;14.492;2023-11-21T06:13:22;22.30;75.50
74153;DHT22;62505;46.070;14.492;2023-11-21T06:15:50;22.30;75.50
74153;DHT22;62505;46.070;14.492;2023-11-21T06:18:17;22.30;75.60
74153;DHT22;62505;46.070;14.492;2023-11-21T06:20:45;22.30;75.30
74153;DHT22;62505;46.070;14.492;2023-11-21T06:23:12;22.40;75.60
74153;DHT22;62505;46.070;14.492;2023-11-21T06:25:41;22.40;75.80
74153;DHT22;62505;46.070;14.492;2023-11-21T06:28:08;22.40;75.60
74153;DHT22;62505;46.070;14.492;2023-11-21T06:30:35;22.40;75.60
74153;DHT22;62505;46.070;14.492;2023-11-21T06:33:03;22.40;75.40
74153;DHT22;62505;46.070;14.492;2023-11-21T06:35:32;22.40;75.70
74153;DHT22;62505;46.070;14.492;2023-11-21T06:38:00;22.40;75.90
74153;DHT22;62505;46.070;14.492;2023-11-21T06:40:28;22.40;76.70
74153;DHT22;62505;46.070;14.492;2023-11-21T06:42:56;22.40;76.80
74153;DHT22;62505;46.070;14.492;2023-11-21T06:45:24;22.40;78.10
74153;DHT22;62505;46.070;14.492;2023-11-21T06:47:51;22.50;78.50
74153;DHT22;62505;46.070;14.492;2023-11-21T06:50:18;22.50;78.00
74153;DHT22;62505;46.070;14.492;2023-11-21T06:52:45;22.40;77.40
74153;DHT22;62505;46.070;14.492;2023-11-21T06:55:12;22.40;75.50
74153;DHT22;62505;46.070;14.492;2023-11-21T06:57:39;22.40;75.50
74153;DHT22;62505;46.070;14.492;2023-11-21T07:00:09;22.40;75.40
74153;DHT22;62505;46.070;14.492;2023-11-21T07:02:37;22.40;75.30
74153;DHT22;62505;46.070;14.492;2023-11-21T07:05:04;22.40;75.20
74153;DHT22;62505;46.070;14.492;2023-11-21T07:07:32;22.40;75.10
74153;DHT22;62505;46.070;14.492;2023-11-21T07:10:01;22.30;75.30
74153;DHT22;62505;46.070;14.492;2023-11-21T07:12:29;22.40;75.40
74153;DHT22;62505;46.070;14.492;2023-11-21T07:14:56;22.30;75.20
74153;DHT22;62505;46.070;14.492;2023-11-21T07:17:25;22.30;75.00
74153;DHT22;62505;46.070;14.492;2023-11-21T07:19:52;22.30;75.10
74153;DHT22;62505;46.070;14.492;2023-11-21T07:22:19;22.30;75.00
74153;DHT22;62505;46.070;14.492;2023-11-21T07:24:48;22.30;75.00
74153;DHT22;62505;46.070;14.492;2023-11-21T07:27:16;22.30;74.90
74153;DHT22;62505;46.070;14.492;2023-11-21T07:29:43;22.30;75.30
74153;DHT22;62505;46.070;14.492;2023-11-21T07:32:10;22.40;75.60
74153;DHT22;62505;46.070;14.492;2023-11-21T07:34:40;22.40;75.70
74153;DHT22;62505;46.070;14.492;2023-11-21T07:37:07;22.40;75.70
74153;DHT22;62505;46.070;14.492;2023-11-21T07:39:34;22.40;75.80
74153;DHT22;62505;46.070;14.492;2023-11-21T07:42:02;22.40;75.80
74153;DHT22;62505;46.070;14.492;2023-11-21T07:44:30;22.40;75.60
74153;DHT22;62505;46.070;14.492;2023-11-21T07:46:56;22.40;75.60
74153;DHT22;62505;46.070;14.492;2023-11-21T07:49:23;22.40;75.60
74153;DHT22;62505;46.070;14.492;2023-11-21T07:51:53;22.40;75.50
74153;DHT22;62505;46.070;14.492;2023-11-21T07:54:20;22.40;75.60
74153;DHT22;62505;46.070;14.492;2023-11-21T07:56:48;22.50;75.50
74153;DHT22;62505;46.070;14.492;2023-11-21T07:59:14;22.50;75.50
74153;DHT22;62505;46.070;14.492;2023-11-21T08:01:42;22.40;75.30
74153;DHT22;62505;46.070;14.492;2023-11-21T08:04:11;22.40;75.20
74153;DHT22;62505;46.070;14.492;2023-11-21T08:06:38;22.40;75.20
74153;DHT22;62505;46.070;14.492;2023-11-21T08:09:08;22.40;75.20
74153;DHT22;62505;46.070;14.492;2023-11-21T08:11:35;22.40;75.10
74153;DHT22;62505;46.070;14.492;2023-11-21T08:14:04;22.40;75.00
74153;DHT22;62505;46.070;14.492;2023-11-21T08:16:31;22.40;75.10
74153;DHT22;62505;46.070;14.492;2023-11-21T08:18:59;22.40;75.10
74153;DHT22;62505;46.070;14.492;2023-11-21T08:21:26;22.40;75.00
74153;DHT22;62505;46.070;14.492;2023-11-21T08:23:54;22.40;75.00
74153;DHT22;62505;46.070;14.492;2023-11-21T08:26:23;22.40;75.00
74153;DHT22;62505;46.070;14.492;2023-11-21T08:28:50;22.40;75.10
74153;DHT22;62505;46.070;14.492;2023-11-21T08:31:24;22.40;75.10
74153;DHT22;62505;46.070;14.492;2023-11-21T08:33:51;22.40;75.00
74153;DHT22;62505;46.070;14.492;2023-11-21T08:36:21;22.40;75.00
74153;DHT22;62505;46.070;14.492;2023-11-21T08:38:48;22.30;74.90
74153;DHT22;62505;46.070;14.492;2023-11-21T08:41:15;22.40;75.00
74153;DHT22;62505;46.070;14.492;2023-11-21T08:43:44;22.30;74.90
74153;DHT22;62505;46.070;14.492;2023-11-21T08:46:10;22.30;74.90
74153;DHT22;62505;46.070;14.492;2023-11-21T08:48:38;22.30;74.80
74153;DHT22;62505;46.070;14.492;2023-11-21T08:51:05;22.30;74.80
74153;DHT22;62505;46.070;14.492;2023-11-21T08:53:32;22.30;74.80
74153;DHT22;62505;46.070;14.492;2023-11-21T08:55:59;22.30;74.80
74153;DHT22;62505;46.070;14.492;2023-11-21T08:58:26;22.30;74.80
74153;DHT22;62505;46.070;14.492;2023-11-21T09:00:54;22.30;74.70
74153;DHT22;62505;46.070;14.492;2023-11-21T09:03:21;22.30;74.80
74153;DHT22;62505;46.070;14.492;2023-11-21T09:05:48;22.30;74.60
74153;DHT22;62505;46.070;14.492;2023-11-21T09:08:15;22.30;74.60
74153;DHT22;62505;46.070;14.492;2023-11-21T09:10:42;22.30;74.70
74153;DHT22;62505;46.070;14.492;2023-11-21T09:13:12;22.30;74.60
74153;DHT22;62505;46.070;14.492;2023-11-21T09:15:42;22.30;74.60
74153;DHT22;62505;46.070;14.492;2023-11-21T09:18:10;22.30;74.50
74153;DHT22;62505;46.070;14.492;2023-11-21T09:20:37;22.30;74.50
74153;DHT22;62505;46.070;14.492;2023-11-21T09:23:04;22.30;75.30
74153;DHT22;62505;46.070;14.492;2023-11-21T09:25:32;22.30;74.50
74153;DHT22;62505;46.070;14.492;2023-11-21T09:27:59;22.30;74.50
74153;DHT22;62505;46.070;14.492;2023-11-21T09:30:26;22.30;74.40
74153;DHT22;62505;46.070;14.492;2023-11-21T09:32:54;22.30;74.50
74153;DHT22;62505;46.070;14.492;2023-11-21T09:35:23;22.30;74.30
74153;DHT22;62505;46.070;14.492;2023-11-21T09:37:50;22.30;74.40
74153;DHT22;62505;46.070;14.492;2023-11-21T09:40:20;22.30;74.40
74153;DHT22;62505;46.070;14.492;2023-11-21T09:42:53;22.30;74.40
74153;DHT22;62505;46.070;14.492;2023-11-21T09:45:25;22.30;74.30
74153;DHT22;62505;46.070;14.492;2023-11-21T09:47:53;22.30;74.40
74153;DHT22;62505;46.070;14.492;2023-11-21T09:50:23;22.30;74.30
74153;DHT22;62505;46.070;14.492;2023-11-21T09:52:57;22.30;74.30
74153;DHT22;62505;46.070;14.492;2023-11-21T09:55:27;22.30;74.30
74153;DHT22;62505;46.070;14.492;2023-11-21T09:57:56;22.30;74.30
74153;DHT22;62505;46.070;14.492;2023-11-21T10:00:24;22.30;74.20
74153;DHT22;62505;46.070;14.492;2023-11-21T10:02:51;22.30;74.20
74153;DHT22;62505;46.070;14.492;2023-11-21T10:05:19;22.30;74.20
74153;DHT22;62505;46.070;14.492;2023-11-21T10:07:50;22.30;74.20
74153;DHT22;62505;46.070;14.492;2023-11-21T10:10:19;22.30;74.20
74153;DHT22;62505;46.070;14.492;2023-11-21T10:12:49;22.30;74.20
74153;DHT22;62505;46.070;14.492;2023-11-21T10:15:21;22.30;74.20
74153;DHT22;62505;46.070;14.492;2023-11-21T10:17:49;22.30;74.10
74153;DHT22;62505;46.070;14.492;2023-11-21T10:20:19;22.30;74.10
74153;DHT22;62505;46.070;14.492;2023-11-21T10:22:46;22.30;74.00
74153;DHT22;62505;46.070;14.492;2023-11-21T10:25:15;22.30;74.10
74153;DHT22;62505;46.070;14.492;2023-11-21T10:27:47;22.30;74.10
74153;DHT22;62505;46.070;14.492;2023-11-21T10:30:16;22.30;74.10
74153;DHT22;62505;46.070;14.492;2023-11-21T10:32:43;22.30;74.00
74153;DHT22;62505;46.070;14.492;2023-11-21T10:35:10;22.30;74.10
74153;DHT22;62505;46.070;14.492;2023-11-21T10:37:38;22.30;74.00
74153;DHT22;62505;46.070;14.492;2023-11-21T10:40:07;22.30;74.50
74153;DHT22;62505;46.070;14.492;2023-11-21T10:42:38;22.30;74.10
74153;DHT22;62505;46.070;14.492;2023-11-21T10:45:06;22.30;74.20
74153;DHT22;62505;46.070;14.492;2023-11-21T10:47:38;22.30;74.00
74153;DHT22;62505;46.070;14.492;2023-11-21T10:50:05;22.30;74.10
74153;DHT22;62505;46.070;14.492;2023-11-21T10:52:36;22.30;74.00
74153;DHT22;62505;46.070;14.492;2023-11-21T10:55:16;22.30;74.00
74153;DHT22;62505;46.070;14.492;2023-11-21T10:57:46;22.30;74.00
74153;DHT22;62505;46.070;14.492;2023-11-21T11:00:16;22.30;74.10
74153;DHT22;62505;46.070;14.492;2023-11-21T11:02:47;22.30;74.10
74153;DHT22;62505;46.070;14.492;2023-11-21T11:05:16;22.30;74.10
74153;DHT22;62505;46.070;14.492;2023-11-21T11:07:47;22.30;74.10
74153;DHT22;62505;46.070;14.492;2023-11-21T11:10:18;22.30;74.10
74153;DHT22;62505;46.070;14.492;2023-11-21T11:12:49;22.30;74.10
74153;DHT22;62505;46.070;14.492;2023-11-21T11:15:18;22.30;74.10
74153;DHT22;62505;46.070;14.492;2023-11-21T11:17:45;22.30;74.10
74153;DHT22;62505;46.070;14.492;2023-11-21T11:20:14;22.30;74.10
74153;DHT22;62505;46.070;14.492;2023-11-21T11:22:49;22.30;74.00
74153;DHT22;62505;46.070;14.492;2023-11-21T11:25:35;22.30;74.10
74153;DHT22;62505;46.070;14.492;2023-11-21T11:28:08;22.30;74.10
74153;DHT22;62505;46.070;14.492;2023-11-21T11:30:46;22.30;74.20
74153;DHT22;62505;46.070;14.492;2023-11-21T11:33:24;22.30;74.10
74153;DHT22;62505;46.070;14.492;2023-11-21T11:36:06;22.30;74.10
74153;DHT22;62505;46.070;14.492;2023-11-21T11:38:35;22.30;74.00
74153;DHT22;62505;46.070;14.492;2023-11-21T11:41:03;22.30;74.10
74153;DHT22;62505;46.070;14.492;2023-11-21T11:43:32;22.30;74.10
74153;DHT22;62505;46.070;14.492;2023-11-21T11:46:05;22.30;74.10
74153;DHT22;62505;46.070;14.492;2023-11-21T11:48:37;22.30;74.10
74153;DHT22;62505;46.070;14.492;2023-11-21T11:51:06;22.30;74.10
74153;DHT22;62505;46.070;14.492;2023-11-21T11:53:39;22.30;74.10
74153;DHT22;62505;46.070;14.492;2023-11-21T11:56:26;22.30;74.10
74153;DHT22;62505;46.070;14.492;2023-11-21T11:58:56;22.20;74.00
74153;DHT22;62505;46.070;14.492;2023-11-21T12:01:26;22.30;74.90
74153;DHT22;62505;46.070;14.492;2023-11-21T12:04:23;22.20;74.00
74153;DHT22;62505;46.070;14.492;2023-11-21T12:06:55;22.30;74.00
74153;DHT22;62505;46.070;14.492;2023-11-21T12:09:24;22.30;73.90
74153;DHT22;62505;46.070;14.492;2023-11-21T12:11:53;22.20;73.80
74153;DHT22;62505;46.070;14.492;2023-11-21T12:14:23;22.30;73.60
74153;DHT22;62505;46.070;14.492;2023-11-21T12:16:51;22.20;73.60
74153;DHT22;62505;46.070;14.492;2023-11-21T12:19:19;22.20;73.70
74153;DHT22;62505;46.070;14.492;2023-11-21T12:21:48;22.30;73.50
74153;DHT22;62505;46.070;14.492;2023-11-21T12:24:16;22.30;73.40
74153;DHT22;62505;46.070;14.492;2023-11-21T12:26:43;22.20;73.20
74153;DHT22;62505;46.070;14.492;2023-11-21T12:29:10;22.20;73.20
74153;DHT22;62505;46.070;14.492;2023-11-21T12:31:39;22.20;73.10
74153;DHT22;62505;46.070;14.492;2023-11-21T12:34:06;22.20;73.00
74153;DHT22;62505;46.070;14.492;2023-11-21T12:36:37;22.20;73.40
74153;DHT22;62505;46.070;14.492;2023-11-21T12:39:04;22.30;75.20
74153;DHT22;62505;46.070;14.492;2023-11-21T12:41:34;22.30;75.10
74153;DHT22;62505;46.070;14.492;2023-11-21T12:44:01;22.30;74.20
74153;DHT22;62505;46.070;14.492;2023-11-21T12:46:28;22.30;74.60
74153;DHT22;62505;46.070;14.492;2023-11-21T12:49:00;22.30;74.20
74153;DHT22;62505;46.070;14.492;2023-11-21T12:51:27;22.30;74.20
74153;DHT22;62505;46.070;14.492;2023-11-21T12:53:55;22.30;74.40
74153;DHT22;62505;46.070;14.492;2023-11-21T12:56:24;22.30;74.60
74153;DHT22;62505;46.070;14.492;2023-11-21T12:58:54;22.30;74.50
74153;DHT22;62505;46.070;14.492;2023-11-21T13:01:26;22.30;74.60
74153;DHT22;62505;46.070;14.492;2023-11-21T13:03:57;22.30;74.60
74153;DHT22;62505;46.070;14.492;2023-11-21T13:06:26;22.30;74.50
74153;DHT22;62505;46.070;14.492;2023-11-21T13:08:59;22.30;74.60
74153;DHT22;62505;46.070;14.492;2023-11-21T13:11:26;22.30;74.50
74153;DHT22;62505;46.070;14.492;2023-11-21T13:13:53;22.30;74.70
74153;DHT22;62505;46.070;14.492;2023-11-21T13:16:21;22.30;74.60
74153;DHT22;62505;46.070;14.492;2023-11-21T13:18:49;22.30;74.50
74153;DHT22;62505;46.070;14.492;2023-11-21T13:21:16;22.30;74.50
74153;DHT22;62505;46.070;14.492;2023-11-21T13:23:44;22.30;74.50
74153;DHT22;62505;46.070;14.492;2023-11-21T13:26:14;22.30;75.10
74153;DHT22;62505;46.070;14.492;2023-11-21T13:28:41;22.30;74.90
74153;DHT22;62505;46.070;14.492;2023-11-21T13:31:11;22.30;74.70
74153;DHT22;62505;46.070;14.492;2023-11-21T13:33:52;22.30;75.00
74153;DHT22;62505;46.070;14.492;2023-11-21T13:36:22;22.30;75.10
74153;DHT22;62505;46.070;14.492;2023-11-21T13:38:50;22.30;75.50
74153;DHT22;62505;46.070;14.492;2023-11-21T13:41:18;22.30;75.00
74153;DHT22;62505;46.070;14.492;2023-11-21T13:43:45;22.30;75.60
74153;DHT22;62505;46.070;14.492;2023-11-21T13:46:18;22.40;75.60
74153;DHT22;62505;46.070;14.492;2023-11-21T13:48:47;22.40;75.50
74153;DHT22;62505;46.070;14.492;2023-11-21T13:51:16;22.40;75.50
74153;DHT22;62505;46.070;14.492;2023-11-21T13:53:44;22.40;75.60
74153;DHT22;62505;46.070;14.492;2023-11-21T13:56:14;22.40;75.30
74153;DHT22;62505;46.070;14.492;2023-11-21T13:58:45;22.40;75.50
74153;DHT22;62505;46.070;14.492;2023-11-21T14:01:17;22.40;75.50
74153;DHT22;62505;46.070;14.492;2023-11-21T14:04:07;22.40;75.10
74153;DHT22;62505;46.070;14.492;2023-11-21T14:06:45;22.40;75.50
74153;DHT22;62505;46.070;14.492;2023-11-21T14:09:14;22.40;75.50
74153;DHT22;62505;46.070;14.492;2023-11-21T14:11:50;22.40;75.50
74153;DHT22;62505;46.070;14.492;2023-11-21T14:14:19;22.40;75.40
74153;DHT22;62505;46.070;14.492;2023-11-21T14:16:46;22.40;75.40
74153;DHT22;62505;46.070;14.492;2023-11-21T14:19:13;22.40;75.50
74153;DHT22;62505;46.070;14.492;2023-11-21T14:21:43;22.40;75.40
74153;DHT22;62505;46.070;14.492;2023-11-21T14:24:10;22.40;75.40
74153;DHT22;62505;46.070;14.492;2023-11-21T14:26:40;22.40;75.40
74153;DHT22;62505;46.070;14.492;2023-11-21T14:29:09;22.40;75.40
74153;DHT22;62505;46.070;14.492;2023-11-21T14:31:38;22.40;75.40
74153;DHT22;62505;46.070;14.492;2023-11-21T14:34:06;22.40;76.30
74153;DHT22;62505;46.070;14.492;2023-11-21T14:36:33;22.40;75.20
74153;DHT22;62505;46.070;14.492;2023-11-21T14:39:02;22.40;75.00
74153;DHT22;62505;46.070;14.492;2023-11-21T14:41:32;22.40;74.70
74153;DHT22;62505;46.070;14.492;2023-11-21T14:44:01;22.40;74.70
74153;DHT22;62505;46.070;14.492;2023-11-21T14:46:31;22.40;74.70
74153;DHT22;62505;46.070;14.492;2023-11-21T14:49:00;22.40;74.80
74153;DHT22;62505;46.070;14.492;2023-11-21T14:51:44;22.40;74.80
74153;DHT22;62505;46.070;14.492;2023-11-21T14:54:26;22.40;74.70
74153;DHT22;62505;46.070;14.492;2023-11-21T14:57:06;22.40;74.70
74153;DHT22;62505;46.070;14.492;2023-11-21T14:59:37;22.30;74.60
74153;DHT22;62505;46.070;14.492;2023-11-21T15:02:04;22.40;74.70
74153;DHT22;62505;46.070;14.492;2023-11-21T15:04:42;22.40;74.70
74153;DHT22;62505;46.070;14.492;2023-11-21T15:07:08;22.30;74.60
74153;DHT22;62505;46.070;14.492;2023-11-21T15:09:37;22.30;74.60
74153;DHT22;62505;46.070;14.492;2023-11-21T15:12:07;22.30;74.60
74153;DHT22;62505;46.070;14.492;2023-11-21T15:14:45;22.30;74.60
74153;DHT22;62505;46.070;14.492;2023-11-21T15:17:15;22.30;74.60
74153;DHT22;62505;46.070;14.492;2023-11-21T15:19:48;22.30;74.60
74153;DHT22;62505;46.070;14.492;2023-11-21T15:22:15;22.30;74.60
74153;DHT22;62505;46.070;14.492;2023-11-21T15:24:43;22.30;74.70